createdAt,value
2022-11-26T00:00:47.122Z,93.21
2022-11-26T00:05:52.731Z,93.60
2022-11-26T00:10:57.425Z,92.69
2022-11-26T00:16:00.406Z,91.77
2022-11-26T00:21:03.352Z,91.77
2022-11-26T00:26:15.721Z,92.17
2022-11-26T00:31:19.239Z,91.94
2022-11-26T00:36:31.581Z,91.86
2022-11-26T00:41:38.943Z,91.99
2022-11-26T00:46:41.820Z,92.97
2022-11-26T00:51:45.583Z,92.37
2022-11-26T00:56:51.144Z,92.64
2022-11-26T01:01:54.131Z,93.11
2022-11-26T01:06:57.127Z,93.21
2022-11-26T01:12:01.405Z,93.16
2022-11-26T01:17:04.366Z,92.94
2022-11-26T01:22:07.290Z,91.40
2022-11-26T01:27:13.552Z,91.29
2022-11-26T01:32:16.648Z,91.57
2022-11-26T01:37:19.553Z,91.32
2022-11-26T01:42:35.642Z,91.16
2022-11-26T01:47:38.748Z,90.93
2022-11-26T01:52:41.818Z,90.63
2022-11-26T01:57:47.027Z,90.19
2022-11-26T02:02:50.405Z,90.47
2022-11-26T02:07:54.401Z,90.75
2022-11-26T02:12:58.850Z,90.71
2022-11-26T02:18:07.399Z,90.26
2022-11-26T02:23:45.442Z,90.19
2022-11-26T02:29:04.436Z,91.11
2022-11-26T02:34:16.234Z,90.56
2022-11-26T02:39:21.209Z,90.69
2022-11-26T02:44:26.663Z,91.18
2022-11-26T02:49:34.064Z,91.40
2022-11-26T02:54:39.399Z,90.85
2022-11-26T02:59:43.449Z,91.88
2022-11-26T03:04:53.733Z,92.06
2022-11-26T03:09:59.035Z,91.99
2022-11-26T03:15:01.991Z,91.96
2022-11-26T03:20:08.075Z,91.54
2022-11-26T03:25:11.554Z,91.08
2022-11-26T03:30:15.352Z,92.08
2022-11-26T03:35:19.912Z,93.37
2022-11-26T03:40:22.782Z,92.71
2022-11-26T03:45:25.699Z,93.04
2022-11-26T03:50:29.953Z,94.79
2022-11-26T03:55:32.874Z,94.04
2022-11-26T04:00:35.793Z,93.86
2022-11-26T04:05:40.022Z,92.82
2022-11-26T04:10:42.973Z,92.85
2022-11-26T04:15:45.920Z,92.71
2022-11-26T04:20:53.290Z,92.57
2022-11-26T04:25:56.411Z,92.71
2022-11-26T04:30:59.420Z,92.03
2022-11-26T04:36:03.810Z,91.36
2022-11-26T04:41:07.621Z,91.96
2022-11-26T04:46:10.704Z,92.12
2022-11-26T04:51:15.038Z,92.36
2022-11-26T04:56:17.968Z,91.33
2022-11-26T05:01:21.120Z,92.49
2022-11-26T05:06:25.444Z,93.90
2022-11-26T05:11:28.387Z,92.28
2022-11-26T05:16:31.673Z,93.25
2022-11-26T05:21:36.001Z,91.68
2022-11-26T05:26:38.908Z,92.65
2022-11-26T05:31:41.952Z,92.95
2022-11-26T05:36:46.315Z,91.62
2022-11-26T05:41:49.294Z,92.92
2022-11-26T05:46:52.235Z,92.97
2022-11-26T05:51:56.540Z,92.27
2022-11-26T05:57:00.386Z,92.60
2022-11-26T06:02:03.684Z,92.62
2022-11-26T06:07:08.138Z,93.64
2022-11-26T06:12:11.134Z,93.55
2022-11-26T06:17:14.094Z,93.75
2022-11-26T06:22:18.368Z,93.80
2022-11-26T06:27:21.465Z,93.24
2022-11-26T06:32:24.357Z,93.77
2022-11-26T06:37:28.652Z,93.84
2022-11-26T06:42:31.615Z,93.62
2022-11-26T06:47:34.487Z,93.79
2022-11-26T06:52:38.866Z,93.59
2022-11-26T06:57:41.778Z,93.74
2022-11-26T07:02:44.931Z,93.77
2022-11-26T07:07:49.304Z,92.69
2022-11-26T07:12:52.245Z,93.01
2022-11-26T07:17:55.225Z,92.40
2022-11-26T07:22:59.506Z,91.46
2022-11-26T07:28:02.370Z,92.03
2022-11-26T07:33:05.378Z,92.72
2022-11-26T07:38:09.620Z,92.66
2022-11-26T07:43:12.549Z,92.18
2022-11-26T07:48:16.999Z,91.61
2022-11-26T07:53:21.609Z,91.90
2022-11-26T07:58:24.569Z,90.18
2022-11-26T08:03:27.428Z,89.87
2022-11-26T08:08:31.761Z,89.33
2022-11-26T08:13:34.673Z,89.50
2022-11-26T08:18:37.751Z,88.61
2022-11-26T08:23:41.999Z,89.54
2022-11-26T08:28:47.478Z,88.80
2022-11-26T08:33:50.377Z,90.37
2022-11-26T08:38:54.637Z,88.17
2022-11-26T08:44:06.559Z,88.73
2022-11-26T08:49:14.889Z,88.60
2022-11-26T08:54:19.214Z,88.62
2022-11-26T08:59:24.218Z,87.87
2022-11-26T09:04:27.179Z,87.54
2022-11-26T09:09:31.723Z,87.71
2022-11-26T09:14:38.441Z,86.52
2022-11-26T09:19:41.643Z,86.14
2022-11-26T09:24:45.893Z,85.57
2022-11-26T09:29:48.747Z,85.01
2022-11-26T09:34:52.612Z,85.32
2022-11-26T09:39:56.927Z,83.77
2022-11-26T09:45:10.043Z,83.93
2022-11-26T09:50:26.644Z,83.37
2022-11-26T09:55:32.980Z,83.00
2022-11-26T10:00:41.069Z,83.68
2022-11-26T10:05:48.855Z,83.10
2022-11-26T10:11:02.498Z,83.22
2022-11-26T10:16:14.547Z,83.49
2022-11-26T10:21:32.324Z,82.43
2022-11-26T10:26:40.882Z,81.73
2022-11-26T10:31:46.282Z,81.56
2022-11-26T10:36:49.975Z,81.70
2022-11-26T10:41:54.315Z,81.34
2022-11-26T10:46:58.503Z,81.84
2022-11-26T10:52:03.490Z,81.95
2022-11-26T10:57:15.220Z,81.73
2022-11-26T11:02:33.931Z,80.16
2022-11-26T11:07:44.074Z,78.80
2022-11-26T11:12:50.982Z,80.24
2022-11-26T11:18:02.571Z,80.01
2022-11-26T11:23:19.048Z,81.39
2022-11-26T11:28:27.511Z,81.30
2022-11-26T11:33:31.114Z,82.50
2022-11-26T11:38:46.742Z,82.38
2022-11-26T11:43:51.205Z,82.06
2022-11-26T11:49:17.417Z,79.80
2022-11-26T11:54:24.334Z,79.62
2022-11-26T12:00:10.695Z,80.76
2022-11-26T12:05:40.037Z,81.34
2022-11-26T12:10:52.588Z,80.94
2022-11-26T12:16:02.083Z,83.06
2022-11-26T12:21:10.958Z,81.42
2022-11-26T12:26:20.138Z,83.08
2022-11-26T12:31:32.205Z,83.37
2022-11-26T12:36:44.373Z,83.40
2022-11-26T12:41:53.713Z,82.66
2022-11-26T12:47:10.568Z,81.33
2022-11-26T12:52:29.814Z,83.50
2022-11-26T12:57:37.469Z,83.69
2022-11-26T13:02:44.774Z,82.84
2022-11-26T13:08:07.031Z,81.46
2022-11-26T13:13:18.522Z,80.72
2022-11-26T13:18:32.633Z,79.52
2022-11-26T13:23:50.958Z,79.67
2022-11-26T13:29:17.608Z,80.42
2022-11-26T13:34:35.577Z,80.45
2022-11-26T13:40:04.805Z,81.16
2022-11-26T13:45:37.004Z,82.50
2022-11-26T13:50:46.411Z,82.13
2022-11-26T13:55:53.428Z,82.21
2022-11-26T14:00:56.568Z,82.20
2022-11-26T14:06:10.497Z,81.37
2022-11-26T14:11:34.295Z,80.51
2022-11-26T14:17:12.622Z,81.04
2022-11-26T14:22:30.278Z,80.70
2022-11-26T14:27:34.458Z,80.62
2022-11-26T14:32:40.831Z,81.32
2022-11-26T14:37:52.550Z,80.41
2022-11-26T14:43:10.150Z,80.55
2022-11-26T14:48:23.890Z,80.24
2022-11-26T14:53:31.850Z,79.55
2022-11-26T14:58:37.822Z,79.81
2022-11-26T15:03:40.787Z,80.36
2022-11-26T15:08:45.637Z,80.63
2022-11-26T15:13:49.529Z,81.33
2022-11-26T15:18:55.285Z,81.75
2022-11-26T15:24:03.988Z,81.81
2022-11-26T15:29:29.302Z,82.16
2022-11-26T15:34:34.049Z,82.82
2022-11-26T15:39:38.292Z,83.17
2022-11-26T15:44:42.892Z,83.86
2022-11-26T15:49:51.934Z,83.42
2022-11-26T15:55:12.405Z,83.76
2022-11-26T16:00:23.187Z,84.29
2022-11-26T16:05:31.870Z,83.63
2022-11-26T16:10:36.790Z,84.43
2022-11-26T16:15:47.739Z,84.62
2022-11-26T16:20:50.849Z,83.92
2022-11-26T16:26:17.518Z,83.69
2022-11-26T16:31:21.197Z,84.73
2022-11-26T16:36:26.253Z,84.56
2022-11-26T16:41:30.586Z,85.41
2022-11-26T16:46:36.944Z,86.93
2022-11-26T16:51:39.890Z,85.54
2022-11-26T16:56:44.463Z,85.44
2022-11-26T17:01:47.410Z,83.88
2022-11-26T17:06:51.205Z,84.57
2022-11-26T17:11:55.511Z,83.62
2022-11-26T17:16:58.501Z,84.05
2022-11-26T17:22:01.407Z,83.83
2022-11-26T17:27:07.568Z,83.82
2022-11-26T17:32:12.863Z,83.80
2022-11-26T17:37:19.860Z,84.60
2022-11-26T17:42:25.038Z,84.28
2022-11-26T17:47:28.360Z,84.62
2022-11-26T17:52:31.378Z,84.17
2022-11-26T17:57:36.052Z,83.77
2022-11-26T18:02:38.976Z,83.82
2022-11-26T18:07:42.305Z,84.89
2022-11-26T18:12:46.607Z,84.92
2022-11-26T18:17:51.511Z,83.68
2022-11-26T18:22:56.667Z,83.81
2022-11-26T18:28:00.906Z,84.03
2022-11-26T18:33:03.849Z,84.94
2022-11-26T18:38:20.625Z,84.69
2022-11-26T18:43:24.917Z,84.74
2022-11-26T18:48:27.935Z,85.22
2022-11-26T18:53:31.021Z,84.47
2022-11-26T18:58:35.274Z,85.47
2022-11-26T19:03:42.566Z,85.28
2022-11-26T19:08:48.060Z,85.07
2022-11-26T19:13:52.431Z,84.50
2022-11-26T19:18:55.296Z,84.86
2022-11-26T19:24:00.316Z,84.56
2022-11-26T19:29:06.029Z,85.34
2022-11-26T19:34:13.623Z,84.55
2022-11-26T19:39:17.277Z,84.59
2022-11-26T19:44:21.688Z,84.89
2022-11-26T19:49:24.605Z,84.51
2022-11-26T19:54:27.790Z,85.75
2022-11-26T19:59:32.404Z,85.81
2022-11-26T20:04:35.321Z,85.40
2022-11-26T20:09:38.545Z,85.72
2022-11-26T20:14:43.008Z,85.04
2022-11-26T20:19:46.772Z,85.35
2022-11-26T20:24:49.657Z,85.84
2022-11-26T20:29:53.904Z,86.12
2022-11-26T20:34:57.981Z,86.71
2022-11-26T20:40:00.874Z,86.99
2022-11-26T20:45:05.796Z,87.74
2022-11-26T20:50:10.747Z,88.42
2022-11-26T20:55:13.782Z,88.62
2022-11-26T21:00:22.448Z,88.86
2022-11-26T21:05:29.102Z,89.05
2022-11-26T21:10:32.003Z,88.93
2022-11-26T21:15:36.605Z,89.70
2022-11-26T21:20:40.704Z,89.11
2022-11-26T21:25:44.712Z,88.64
2022-11-26T21:30:48.984Z,89.87
2022-11-26T21:35:51.905Z,88.78
2022-11-26T21:40:54.772Z,87.73
2022-11-26T21:46:03.863Z,89.57
2022-11-26T21:51:08.253Z,89.45
2022-11-26T21:56:14.667Z,88.04
2022-11-26T22:01:20.865Z,88.94
2022-11-26T22:06:24.681Z,87.88
2022-11-26T22:11:29.796Z,87.68
2022-11-26T22:16:34.985Z,87.45
2022-11-26T22:21:40.191Z,87.93
2022-11-26T22:26:44.237Z,87.73
2022-11-26T22:31:50.311Z,87.50
2022-11-26T22:36:53.304Z,87.17
2022-11-26T22:41:56.653Z,87.63
2022-11-26T22:47:00.975Z,87.86
2022-11-26T22:52:03.922Z,87.11
2022-11-26T22:57:06.840Z,86.79
2022-11-26T23:02:11.238Z,87.01
2022-11-26T23:07:14.269Z,86.58
2022-11-26T23:12:17.167Z,86.37
2022-11-26T23:17:21.451Z,85.88
2022-11-26T23:22:24.377Z,86.23
2022-11-26T23:27:27.306Z,86.46
2022-11-26T23:32:32.587Z,86.04
2022-11-26T23:37:36.081Z,86.92
2022-11-26T23:42:38.959Z,86.33
2022-11-26T23:47:43.238Z,86.29
2022-11-26T23:52:46.106Z,87.16
2022-11-26T23:57:49.019Z,86.57
